Portada
METAR-TAF:

METAR-TAF

Aeropuertos :

Aeropuerto de Inverness

Inverness, Escocia

latitud: 57-32N, longitud: 004-03W, altitud: 9 m

Observación

El informe se hizo hace 29 minutos, a las 22:50 UTC
Viento 1 kt del sur-suroeste
Temperatura 15°C
Humedad 72%
Presión 1004 hPa
Visibilidad 10 km o más

METAR: EGPE 212250Z AUTO 21001KT 9999 NCD 15/10 Q1004

Hora: 00:19 (23:19 UTC)

Pronóstico

El informe se hizo hace 2 horas y 24 minutos, a las 20:55 UTC
Pronóstico válido del 21 a las 21 UTC al 22 a las 06 UTC
Viento 2 kt del oeste-suroeste
Visibilidad 10 km o más
Nubes dispersas a una altura de 3500 ft
Probabilidad 30% :
Temporalmente
del 22 a las 03 UTC al 22 a las 06 UTC
Cielo nuboso a una altura de 1400 ft

TAF: EGPE 212055Z 2121/2206 24002KT 9999 SCT035 PROB30 TEMPO 2203/2206 BKN014

Observaciones y pronósticos meteorológicos de más de 4000 aeropuertos (mensajes METAR y TAF).

Los puntos amarillos y rojos representan las estaciones disponibles.

Ponga el ratón en el punto deseado para ver el nombre de la estación.

Haga clic para ver las observaciones y los pronósticos meteorológicos.

Para cambiar el mapa : haga clic en los botones verdes con una cruz de color negro para hacer un zoom, en el botón verde con un guión para alejar o en las flechas verdes para mapas adyacentes.


METAR-TAF: